Ludlow, Iowa
Current Conditions -  °F | °C
As of 1:55 PM on Wednesday 17 Dec 2014 (Local Time) from KDEH Reporting Station
Broken Clouds Broken Clouds  
Wind Chill: 14°   Ceiling: 2000
Heat Index: 21°   Visibility: 10mi
Dew Point: 12°   Wind: 6mph
Humidity: 68%   Direction: NA
Pressure: 30.24"   Gusts: NA
Location:  43.256°N, 91.4868°W
Report Text: KDEH 171955Z AUTO VRB05KT 10SM BKN020 M06/M11 A3024 RMK AO2
Loading
Personal Weather Stations






























Interactive Weather Map New forecast layout! Learn more

10-Day Weather Forecast

Advertisements
Track Severe Weather on mobile